sensor_id;sensor_type;location;lat;lon;timestamp;temperature;humidity
48744;DHT22;34538;48.836;9.174;2023-11-18T00:01:43;5.70;99.90
48744;DHT22;34538;48.836;9.174;2023-11-18T00:04:10;5.70;99.90
48744;DHT22;34538;48.836;9.174;2023-11-18T00:06:41;5.70;99.90
48744;DHT22;34538;48.836;9.174;2023-11-18T00:09:09;5.70;99.90
48744;DHT22;34538;48.836;9.174;2023-11-18T00:11:38;5.80;99.90
48744;DHT22;34538;48.836;9.174;2023-11-18T00:14:06;5.80;99.90
48744;DHT22;34538;48.836;9.174;2023-11-18T00:16:33;5.80;99.90
48744;DHT22;34538;48.836;9.174;2023-11-18T00:19:00;5.80;99.90
48744;DHT22;34538;48.836;9.174;2023-11-18T00:21:30;5.80;99.90
48744;DHT22;34538;48.836;9.174;2023-11-18T00:23:57;5.80;99.90
48744;DHT22;34538;48.836;9.174;2023-11-18T00:26:23;5.80;99.90
48744;DHT22;34538;48.836;9.174;2023-11-18T00:28:57;5.80;99.90
48744;DHT22;34538;48.836;9.174;2023-11-18T00:31:26;5.70;99.90
48744;DHT22;34538;48.836;9.174;2023-11-18T00:33:54;5.70;99.90
48744;DHT22;34538;48.836;9.174;2023-11-18T00:36:20;5.60;99.90
48744;DHT22;34538;48.836;9.174;2023-11-18T00:38:47;5.70;99.90
48744;DHT22;34538;48.836;9.174;2023-11-18T00:41:14;5.70;99.90
48744;DHT22;34538;48.836;9.174;2023-11-18T00:43:42;5.70;99.90
48744;DHT22;34538;48.836;9.174;2023-11-18T00:46:09;5.70;99.90
48744;DHT22;34538;48.836;9.174;2023-11-18T00:48:37;5.70;99.90
48744;DHT22;34538;48.836;9.174;2023-11-18T00:51:05;5.80;99.90
48744;DHT22;34538;48.836;9.174;2023-11-18T00:53:33;5.80;99.90
48744;DHT22;34538;48.836;9.174;2023-11-18T00:56:00;5.80;99.90
48744;DHT22;34538;48.836;9.174;2023-11-18T00:58:27;5.90;99.90
48744;DHT22;34538;48.836;9.174;2023-11-18T01:00:54;5.90;99.90
48744;DHT22;34538;48.836;9.174;2023-11-18T01:03:21;5.90;99.90
48744;DHT22;34538;48.836;9.174;2023-11-18T01:05:49;5.90;99.90
48744;DHT22;34538;48.836;9.174;2023-11-18T01:08:17;5.90;99.90
48744;DHT22;34538;48.836;9.174;2023-11-18T01:10:44;6.00;99.90
48744;DHT22;34538;48.836;9.174;2023-11-18T01:13:11;6.00;99.90
48744;DHT22;34538;48.836;9.174;2023-11-18T01:15:38;6.10;99.90
48744;DHT22;34538;48.836;9.174;2023-11-18T01:18:05;6.10;99.90
48744;DHT22;34538;48.836;9.174;2023-11-18T01:20:31;6.10;99.90
48744;DHT22;34538;48.836;9.174;2023-11-18T01:22:59;6.10;99.90
48744;DHT22;34538;48.836;9.174;2023-11-18T01:25:26;6.10;99.90
48744;DHT22;34538;48.836;9.174;2023-11-18T01:27:52;6.20;99.90
48744;DHT22;34538;48.836;9.174;2023-11-18T01:30:19;6.20;99.90
48744;DHT22;34538;48.836;9.174;2023-11-18T01:32:46;6.10;99.90
48744;DHT22;34538;48.836;9.174;2023-11-18T01:35:12;6.10;99.90
48744;DHT22;34538;48.836;9.174;2023-11-18T01:37:39;6.20;99.90
48744;DHT22;34538;48.836;9.174;2023-11-18T01:40:08;6.20;99.90
48744;DHT22;34538;48.836;9.174;2023-11-18T01:42:38;6.20;99.90
48744;DHT22;34538;48.836;9.174;2023-11-18T01:45:05;6.20;99.90
48744;DHT22;34538;48.836;9.174;2023-11-18T01:47:36;6.20;99.90
48744;DHT22;34538;48.836;9.174;2023-11-18T01:50:05;6.20;99.90
48744;DHT22;34538;48.836;9.174;2023-11-18T01:52:32;6.10;99.90
48744;DHT22;34538;48.836;9.174;2023-11-18T01:54:59;6.20;99.90
48744;DHT22;34538;48.836;9.174;2023-11-18T01:57:28;6.10;99.90
48744;DHT22;34538;48.836;9.174;2023-11-18T01:59:55;6.10;99.90
48744;DHT22;34538;48.836;9.174;2023-11-18T02:02:22;6.10;99.90
48744;DHT22;34538;48.836;9.174;2023-11-18T02:04:48;6.10;99.90
48744;DHT22;34538;48.836;9.174;2023-11-18T02:07:15;6.20;99.90
48744;DHT22;34538;48.836;9.174;2023-11-18T02:09:42;6.20;99.90
48744;DHT22;34538;48.836;9.174;2023-11-18T02:12:12;6.20;99.90
48744;DHT22;34538;48.836;9.174;2023-11-18T02:14:44;6.20;99.90
48744;DHT22;34538;48.836;9.174;2023-11-18T02:17:12;6.20;99.90
48744;DHT22;34538;48.836;9.174;2023-11-18T02:19:40;6.20;99.90
48744;DHT22;34538;48.836;9.174;2023-11-18T02:22:08;6.20;99.90
48744;DHT22;34538;48.836;9.174;2023-11-18T02:24:37;6.20;99.90
48744;DHT22;34538;48.836;9.174;2023-11-18T02:27:07;6.20;99.90
48744;DHT22;34538;48.836;9.174;2023-11-18T02:29:38;6.30;99.90
48744;DHT22;34538;48.836;9.174;2023-11-18T02:32:09;6.30;99.90
48744;DHT22;34538;48.836;9.174;2023-11-18T02:34:39;6.20;99.90
48744;DHT22;34538;48.836;9.174;2023-11-18T02:37:08;6.20;99.90
48744;DHT22;34538;48.836;9.174;2023-11-18T02:39:38;6.20;99.90
48744;DHT22;34538;48.836;9.174;2023-11-18T02:42:09;6.10;99.90
48744;DHT22;34538;48.836;9.174;2023-11-18T02:44:38;6.10;99.90
48744;DHT22;34538;48.836;9.174;2023-11-18T02:47:05;6.10;99.90
48744;DHT22;34538;48.836;9.174;2023-11-18T02:49:32;6.00;99.90
48744;DHT22;34538;48.836;9.174;2023-11-18T02:52:00;6.00;99.90
48744;DHT22;34538;48.836;9.174;2023-11-18T02:54:28;5.90;99.90
48744;DHT22;34538;48.836;9.174;2023-11-18T02:56:54;5.80;99.90
48744;DHT22;34538;48.836;9.174;2023-11-18T02:59:23;5.70;99.90
48744;DHT22;34538;48.836;9.174;2023-11-18T03:01:53;5.70;99.90
48744;DHT22;34538;48.836;9.174;2023-11-18T03:04:19;5.60;99.90
48744;DHT22;34538;48.836;9.174;2023-11-18T03:06:46;5.50;99.90
48744;DHT22;34538;48.836;9.174;2023-11-18T03:09:12;5.60;99.90
48744;DHT22;34538;48.836;9.174;2023-11-18T03:11:40;5.50;99.90
48744;DHT22;34538;48.836;9.174;2023-11-18T03:14:09;5.50;99.90
48744;DHT22;34538;48.836;9.174;2023-11-18T03:16:38;5.50;99.90
48744;DHT22;34538;48.836;9.174;2023-11-18T03:19:05;5.50;99.90
48744;DHT22;34538;48.836;9.174;2023-11-18T03:21:32;5.40;99.90
48744;DHT22;34538;48.836;9.174;2023-11-18T03:23:59;5.40;99.90
48744;DHT22;34538;48.836;9.174;2023-11-18T03:26:26;5.40;99.90
48744;DHT22;34538;48.836;9.174;2023-11-18T03:28:52;5.30;99.90
48744;DHT22;34538;48.836;9.174;2023-11-18T03:31:19;5.30;99.90
48744;DHT22;34538;48.836;9.174;2023-11-18T03:33:47;5.30;99.90
48744;DHT22;34538;48.836;9.174;2023-11-18T03:36:14;5.30;99.90
48744;DHT22;34538;48.836;9.174;2023-11-18T03:38:43;5.30;99.90
48744;DHT22;34538;48.836;9.174;2023-11-18T03:41:09;5.30;99.90
48744;DHT22;34538;48.836;9.174;2023-11-18T03:43:38;5.20;99.90
48744;DHT22;34538;48.836;9.174;2023-11-18T03:46:05;5.20;99.90
48744;DHT22;34538;48.836;9.174;2023-11-18T03:48:32;5.20;99.90
48744;DHT22;34538;48.836;9.174;2023-11-18T03:51:01;5.20;99.90
48744;DHT22;34538;48.836;9.174;2023-11-18T03:53:28;5.20;99.90
48744;DHT22;34538;48.836;9.174;2023-11-18T03:55:55;5.20;99.90
48744;DHT22;34538;48.836;9.174;2023-11-18T03:58:22;5.10;99.90
48744;DHT22;34538;48.836;9.174;2023-11-18T04:00:48;5.10;99.90
48744;DHT22;34538;48.836;9.174;2023-11-18T04:03:15;5.10;99.90
48744;DHT22;34538;48.836;9.174;2023-11-18T04:05:42;5.10;99.90
48744;DHT22;34538;48.836;9.174;2023-11-18T04:08:10;5.00;99.90
48744;DHT22;34538;48.836;9.174;2023-11-18T04:10:38;5.00;99.90
48744;DHT22;34538;48.836;9.174;2023-11-18T04:13:05;5.00;99.90
48744;DHT22;34538;48.836;9.174;2023-11-18T04:15:32;4.90;99.90
48744;DHT22;34538;48.836;9.174;2023-11-18T04:18:00;4.80;99.90
48744;DHT22;34538;48.836;9.174;2023-11-18T04:20:27;4.80;99.90
48744;DHT22;34538;48.836;9.174;2023-11-18T04:22:53;4.70;99.90
48744;DHT22;34538;48.836;9.174;2023-11-18T04:25:22;4.70;99.90
48744;DHT22;34538;48.836;9.174;2023-11-18T04:27:48;4.70;99.90
48744;DHT22;34538;48.836;9.174;2023-11-18T04:30:15;4.60;99.90
48744;DHT22;34538;48.836;9.174;2023-11-18T04:32:42;4.60;99.90
48744;DHT22;34538;48.836;9.174;2023-11-18T04:35:09;4.60;99.90
48744;DHT22;34538;48.836;9.174;2023-11-18T04:37:37;4.60;99.90
48744;DHT22;34538;48.836;9.174;2023-11-18T04:40:08;4.50;99.90
48744;DHT22;34538;48.836;9.174;2023-11-18T04:42:41;4.50;99.90
48744;DHT22;34538;48.836;9.174;2023-11-18T04:45:08;4.50;99.90
48744;DHT22;34538;48.836;9.174;2023-11-18T04:47:36;4.40;99.90
48744;DHT22;34538;48.836;9.174;2023-11-18T04:50:04;4.40;99.90
48744;DHT22;34538;48.836;9.174;2023-11-18T04:52:30;4.40;99.90
48744;DHT22;34538;48.836;9.174;2023-11-18T04:55:00;4.30;99.90
48744;DHT22;34538;48.836;9.174;2023-11-18T04:57:27;4.30;99.90
48744;DHT22;34538;48.836;9.174;2023-11-18T04:59:55;4.30;99.90
48744;DHT22;34538;48.836;9.174;2023-11-18T05:02:22;4.30;99.90
48744;DHT22;34538;48.836;9.174;2023-11-18T05:04:50;4.20;99.90
48744;DHT22;34538;48.836;9.174;2023-11-18T05:07:17;4.20;99.90
48744;DHT22;34538;48.836;9.174;2023-11-18T05:09:44;4.20;99.90
48744;DHT22;34538;48.836;9.174;2023-11-18T05:12:10;4.20;99.90
48744;DHT22;34538;48.836;9.174;2023-11-18T05:14:37;4.10;99.90
48744;DHT22;34538;48.836;9.174;2023-11-18T05:17:06;4.10;99.90
48744;DHT22;34538;48.836;9.174;2023-11-18T05:19:34;4.10;99.90
48744;DHT22;34538;48.836;9.174;2023-11-18T05:22:00;4.10;99.90
48744;DHT22;34538;48.836;9.174;2023-11-18T05:24:27;4.00;99.90
48744;DHT22;34538;48.836;9.174;2023-11-18T05:26:52;4.00;99.90
48744;DHT22;34538;48.836;9.174;2023-11-18T05:29:19;3.90;99.90
48744;DHT22;34538;48.836;9.174;2023-11-18T05:31:46;3.90;99.90
48744;DHT22;34538;48.836;9.174;2023-11-18T05:34:14;3.90;99.90
48744;DHT22;34538;48.836;9.174;2023-11-18T05:36:41;3.90;99.90
48744;DHT22;34538;48.836;9.174;2023-11-18T05:39:08;3.80;99.90
48744;DHT22;34538;48.836;9.174;2023-11-18T05:41:36;3.80;99.90
48744;DHT22;34538;48.836;9.174;2023-11-18T05:44:05;3.90;99.90
48744;DHT22;34538;48.836;9.174;2023-11-18T05:46:34;3.80;99.90
48744;DHT22;34538;48.836;9.174;2023-11-18T05:49:01;3.80;99.90
48744;DHT22;34538;48.836;9.174;2023-11-18T05:51:32;3.80;99.90
48744;DHT22;34538;48.836;9.174;2023-11-18T05:53:58;3.80;99.90
48744;DHT22;34538;48.836;9.174;2023-11-18T05:56:25;3.80;99.90
48744;DHT22;34538;48.836;9.174;2023-11-18T05:58:52;3.80;99.90
48744;DHT22;34538;48.836;9.174;2023-11-18T06:01:19;3.80;99.90
48744;DHT22;34538;48.836;9.174;2023-11-18T06:03:46;3.80;99.90
48744;DHT22;34538;48.836;9.174;2023-11-18T06:06:14;3.80;99.90
48744;DHT22;34538;48.836;9.174;2023-11-18T06:08:43;3.80;99.90
48744;DHT22;34538;48.836;9.174;2023-11-18T06:11:10;3.70;99.90
48744;DHT22;34538;48.836;9.174;2023-11-18T06:13:40;3.70;99.90
48744;DHT22;34538;48.836;9.174;2023-11-18T06:16:14;3.70;99.90
48744;DHT22;34538;48.836;9.174;2023-11-18T06:18:42;3.60;99.90
48744;DHT22;34538;48.836;9.174;2023-11-18T06:21:12;3.60;99.90
48744;DHT22;34538;48.836;9.174;2023-11-18T06:23:38;3.60;99.90
48744;DHT22;34538;48.836;9.174;2023-11-18T06:26:07;3.50;99.90
48744;DHT22;34538;48.836;9.174;2023-11-18T06:28:35;3.50;99.90
48744;DHT22;34538;48.836;9.174;2023-11-18T06:31:02;3.50;99.90
48744;DHT22;34538;48.836;9.174;2023-11-18T06:33:29;3.40;99.90
48744;DHT22;34538;48.836;9.174;2023-11-18T06:35:56;3.40;99.90
48744;DHT22;34538;48.836;9.174;2023-11-18T06:38:23;3.40;99.90
48744;DHT22;34538;48.836;9.174;2023-11-18T06:40:50;3.30;99.90
48744;DHT22;34538;48.836;9.174;2023-11-18T06:43:19;3.20;99.90
48744;DHT22;34538;48.836;9.174;2023-11-18T06:45:47;3.30;99.90
48744;DHT22;34538;48.836;9.174;2023-11-18T06:48:14;3.30;99.90
48744;DHT22;34538;48.836;9.174;2023-11-18T06:50:45;3.30;99.90
48744;DHT22;34538;48.836;9.174;2023-11-18T06:53:12;3.20;99.90
48744;DHT22;34538;48.836;9.174;2023-11-18T06:55:41;3.20;99.90
48744;DHT22;34538;48.836;9.174;2023-11-18T06:58:07;3.20;99.90
48744;DHT22;34538;48.836;9.174;2023-11-18T07:00:37;3.20;99.90
48744;DHT22;34538;48.836;9.174;2023-11-18T07:03:04;3.20;99.90
48744;DHT22;34538;48.836;9.174;2023-11-18T07:05:31;3.20;99.90
48744;DHT22;34538;48.836;9.174;2023-11-18T07:07:58;3.20;99.90
48744;DHT22;34538;48.836;9.174;2023-11-18T07:10:24;3.20;99.90
48744;DHT22;34538;48.836;9.174;2023-11-18T07:12:53;3.30;99.90
48744;DHT22;34538;48.836;9.174;2023-11-18T07:15:20;3.30;99.90
48744;DHT22;34538;48.836;9.174;2023-11-18T07:17:48;3.30;99.90
48744;DHT22;34538;48.836;9.174;2023-11-18T07:20:15;3.30;99.90
48744;DHT22;34538;48.836;9.174;2023-11-18T07:22:43;3.40;99.90
48744;DHT22;34538;48.836;9.174;2023-11-18T07:25:09;3.50;99.90
48744;DHT22;34538;48.836;9.174;2023-11-18T07:27:36;3.50;99.90
48744;DHT22;34538;48.836;9.174;2023-11-18T07:30:03;3.60;99.90
48744;DHT22;34538;48.836;9.174;2023-11-18T07:32:35;3.60;99.90
48744;DHT22;34538;48.836;9.174;2023-11-18T07:35:04;3.70;99.90
48744;DHT22;34538;48.836;9.174;2023-11-18T07:37:34;3.80;99.90
48744;DHT22;34538;48.836;9.174;2023-11-18T07:40:03;3.90;99.90
48744;DHT22;34538;48.836;9.174;2023-11-18T07:42:30;4.00;99.90
48744;DHT22;34538;48.836;9.174;2023-11-18T07:45:00;4.10;99.90
48744;DHT22;34538;48.836;9.174;2023-11-18T07:47:29;4.20;99.90
48744;DHT22;34538;48.836;9.174;2023-11-18T07:49:57;4.30;99.90
48744;DHT22;34538;48.836;9.174;2023-11-18T07:52:25;4.40;99.90
48744;DHT22;34538;48.836;9.174;2023-11-18T07:54:53;4.40;99.90
48744;DHT22;34538;48.836;9.174;2023-11-18T07:57:19;4.60;99.90
48744;DHT22;34538;48.836;9.174;2023-11-18T07:59:46;4.70;99.90
48744;DHT22;34538;48.836;9.174;2023-11-18T08:02:13;4.80;99.90
48744;DHT22;34538;48.836;9.174;2023-11-18T08:04:41;4.80;99.90
48744;DHT22;34538;48.836;9.174;2023-11-18T08:07:08;5.00;99.90
48744;DHT22;34538;48.836;9.174;2023-11-18T08:09:37;5.10;99.90
48744;DHT22;34538;48.836;9.174;2023-11-18T08:12:05;5.20;99.90
48744;DHT22;34538;48.836;9.174;2023-11-18T08:14:34;5.30;99.90
48744;DHT22;34538;48.836;9.174;2023-11-18T08:17:01;5.40;99.90
48744;DHT22;34538;48.836;9.174;2023-11-18T08:19:29;5.50;99.90
48744;DHT22;34538;48.836;9.174;2023-11-18T08:21:56;5.60;99.90
48744;DHT22;34538;48.836;9.174;2023-11-18T08:24:24;5.70;99.90
48744;DHT22;34538;48.836;9.174;2023-11-18T08:26:52;5.80;99.90
48744;DHT22;34538;48.836;9.174;2023-11-18T08:29:20;5.90;99.90
48744;DHT22;34538;48.836;9.174;2023-11-18T08:31:46;6.00;99.90
48744;DHT22;34538;48.836;9.174;2023-11-18T08:34:13;6.10;99.90
48744;DHT22;34538;48.836;9.174;2023-11-18T08:36:40;6.10;99.90
48744;DHT22;34538;48.836;9.174;2023-11-18T08:39:09;6.20;99.90
48744;DHT22;34538;48.836;9.174;2023-11-18T08:41:36;6.30;99.90
48744;DHT22;34538;48.836;9.174;2023-11-18T08:44:05;6.40;99.90
48744;DHT22;34538;48.836;9.174;2023-11-18T08:46:34;6.40;99.90
48744;DHT22;34538;48.836;9.174;2023-11-18T08:49:02;6.50;99.90
48744;DHT22;34538;48.836;9.174;2023-11-18T08:51:36;6.50;99.90
48744;DHT22;34538;48.836;9.174;2023-11-18T08:54:04;6.60;99.90
48744;DHT22;34538;48.836;9.174;2023-11-18T08:56:47;6.70;99.90
48744;DHT22;34538;48.836;9.174;2023-11-18T08:59:18;6.70;99.90
48744;DHT22;34538;48.836;9.174;2023-11-18T09:01:50;6.80;99.90
48744;DHT22;34538;48.836;9.174;2023-11-18T09:04:21;6.90;99.90
48744;DHT22;34538;48.836;9.174;2023-11-18T09:06:49;6.90;99.90
48744;DHT22;34538;48.836;9.174;2023-11-18T09:09:17;7.00;99.90
48744;DHT22;34538;48.836;9.174;2023-11-18T09:11:52;7.00;99.90
48744;DHT22;34538;48.836;9.174;2023-11-18T09:14:20;7.10;99.90
48744;DHT22;34538;48.836;9.174;2023-11-18T09:16:47;7.10;99.90
48744;DHT22;34538;48.836;9.174;2023-11-18T09:19:14;7.10;99.90
48744;DHT22;34538;48.836;9.174;2023-11-18T09:21:42;7.20;99.90
48744;DHT22;34538;48.836;9.174;2023-11-18T09:24:10;7.20;99.90
48744;DHT22;34538;48.836;9.174;2023-11-18T09:26:38;7.20;99.90
48744;DHT22;34538;48.836;9.174;2023-11-18T09:29:05;7.20;99.90
48744;DHT22;34538;48.836;9.174;2023-11-18T09:31:35;7.30;99.90
48744;DHT22;34538;48.836;9.174;2023-11-18T09:34:02;7.30;99.90
48744;DHT22;34538;48.836;9.174;2023-11-18T09:36:32;7.40;99.90
48744;DHT22;34538;48.836;9.174;2023-11-18T09:38:59;7.50;99.90
48744;DHT22;34538;48.836;9.174;2023-11-18T09:41:28;7.60;99.90
48744;DHT22;34538;48.836;9.174;2023-11-18T09:43:55;7.70;99.90
48744;DHT22;34538;48.836;9.174;2023-11-18T09:46:23;7.80;99.90
48744;DHT22;34538;48.836;9.174;2023-11-18T09:48:51;7.90;99.90
48744;DHT22;34538;48.836;9.174;2023-11-18T09:51:22;7.90;99.90
48744;DHT22;34538;48.836;9.174;2023-11-18T09:53:49;8.00;99.90
48744;DHT22;34538;48.836;9.174;2023-11-18T09:56:17;8.10;99.90
48744;DHT22;34538;48.836;9.174;2023-11-18T09:58:54;8.20;99.90
48744;DHT22;34538;48.836;9.174;2023-11-18T10:01:25;8.30;99.90
48744;DHT22;34538;48.836;9.174;2023-11-18T10:03:54;8.40;99.90
48744;DHT22;34538;48.836;9.174;2023-11-18T10:06:24;8.40;99.90
48744;DHT22;34538;48.836;9.174;2023-11-18T10:08:52;8.50;99.90
48744;DHT22;34538;48.836;9.174;2023-11-18T10:11:19;8.50;99.90
48744;DHT22;34538;48.836;9.174;2023-11-18T10:13:48;8.50;99.90
48744;DHT22;34538;48.836;9.174;2023-11-18T10:16:15;8.50;99.90
48744;DHT22;34538;48.836;9.174;2023-11-18T10:18:44;8.70;99.90
48744;DHT22;34538;48.836;9.174;2023-11-18T10:21:16;8.70;99.90
48744;DHT22;34538;48.836;9.174;2023-11-18T10:23:58;8.80;99.90
48744;DHT22;34538;48.836;9.174;2023-11-18T10:26:25;8.80;99.90
48744;DHT22;34538;48.836;9.174;2023-11-18T10:28:54;8.90;99.90
48744;DHT22;34538;48.836;9.174;2023-11-18T10:31:21;8.90;99.90
48744;DHT22;34538;48.836;9.174;2023-11-18T10:33:50;9.00;99.90
48744;DHT22;34538;48.836;9.174;2023-11-18T10:36:18;9.00;99.90
48744;DHT22;34538;48.836;9.174;2023-11-18T10:38:48;9.00;99.90
48744;DHT22;34538;48.836;9.174;2023-11-18T10:41:18;9.00;99.90
48744;DHT22;34538;48.836;9.174;2023-11-18T10:43:44;9.00;99.90
48744;DHT22;34538;48.836;9.174;2023-11-18T10:46:13;9.00;99.90
48744;DHT22;34538;48.836;9.174;2023-11-18T10:48:41;8.90;99.90
48744;DHT22;34538;48.836;9.174;2023-11-18T10:51:08;8.90;99.90
48744;DHT22;34538;48.836;9.174;2023-11-18T10:53:38;8.90;99.90
48744;DHT22;34538;48.836;9.174;2023-11-18T10:56:06;8.90;99.90
48744;DHT22;34538;48.836;9.174;2023-11-18T10:58:44;8.90;99.90
48744;DHT22;34538;48.836;9.174;2023-11-18T11:01:11;9.00;99.90
48744;DHT22;34538;48.836;9.174;2023-11-18T11:03:48;9.00;99.90
48744;DHT22;34538;48.836;9.174;2023-11-18T11:06:19;9.10;99.90
48744;DHT22;34538;48.836;9.174;2023-11-18T11:08:50;9.10;99.90
48744;DHT22;34538;48.836;9.174;2023-11-18T11:11:18;9.10;99.90
48744;DHT22;34538;48.836;9.174;2023-11-18T11:13:47;9.20;99.90
48744;DHT22;34538;48.836;9.174;2023-11-18T11:16:16;9.20;99.90
48744;DHT22;34538;48.836;9.174;2023-11-18T11:18:46;9.20;99.90
48744;DHT22;34538;48.836;9.174;2023-11-18T11:21:19;9.20;99.90
48744;DHT22;34538;48.836;9.174;2023-11-18T11:23:52;9.20;99.90
48744;DHT22;34538;48.836;9.174;2023-11-18T11:26:26;9.30;99.90
48744;DHT22;34538;48.836;9.174;2023-11-18T11:28:58;9.30;99.90
48744;DHT22;34538;48.836;9.174;2023-11-18T11:31:30;9.30;99.90
48744;DHT22;34538;48.836;9.174;2023-11-18T11:33:59;9.30;99.90
48744;DHT22;34538;48.836;9.174;2023-11-18T11:36:37;9.40;99.90
48744;DHT22;34538;48.836;9.174;2023-11-18T11:39:08;9.40;99.90
48744;DHT22;34538;48.836;9.174;2023-11-18T11:41:42;9.30;99.90
48744;DHT22;34538;48.836;9.174;2023-11-18T11:44:11;9.30;99.90
48744;DHT22;34538;48.836;9.174;2023-11-18T11:46:38;9.40;99.90
48744;DHT22;34538;48.836;9.174;2023-11-18T11:49:08;9.40;99.90
48744;DHT22;34538;48.836;9.174;2023-11-18T11:51:44;9.40;99.90
48744;DHT22;34538;48.836;9.174;2023-11-18T11:54:17;9.40;99.90
48744;DHT22;34538;48.836;9.174;2023-11-18T11:56:47;9.50;99.90
48744;DHT22;34538;48.836;9.174;2023-11-18T11:59:15;9.40;99.90
48744;DHT22;34538;48.836;9.174;2023-11-18T12:01:42;9.40;99.90
48744;DHT22;34538;48.836;9.174;2023-11-18T12:04:12;9.40;99.90
48744;DHT22;34538;48.836;9.174;2023-11-18T12:06:46;9.50;99.90
48744;DHT22;34538;48.836;9.174;2023-11-18T12:09:20;9.50;99.90
48744;DHT22;34538;48.836;9.174;2023-11-18T12:11:47;9.50;99.90
48744;DHT22;34538;48.836;9.174;2023-11-18T12:14:15;9.50;99.90
48744;DHT22;34538;48.836;9.174;2023-11-18T12:17:06;9.50;99.90
48744;DHT22;34538;48.836;9.174;2023-11-18T12:19:36;9.50;99.90
48744;DHT22;34538;48.836;9.174;2023-11-18T12:22:10;9.40;99.90
48744;DHT22;34538;48.836;9.174;2023-11-18T12:25:03;9.40;99.90
48744;DHT22;34538;48.836;9.174;2023-11-18T12:27:43;9.40;99.90
48744;DHT22;34538;48.836;9.174;2023-11-18T12:33:04;9.40;99.90
48744;DHT22;34538;48.836;9.174;2023-11-18T12:35:35;9.40;99.90
48744;DHT22;34538;48.836;9.174;2023-11-18T12:38:13;9.40;99.90
48744;DHT22;34538;48.836;9.174;2023-11-18T12:40:54;9.30;99.90
48744;DHT22;34538;48.836;9.174;2023-11-18T12:43:29;9.40;99.90
48744;DHT22;34538;48.836;9.174;2023-11-18T12:48:50;9.40;99.90
48744;DHT22;34538;48.836;9.174;2023-11-18T12:51:18;9.40;99.90
48744;DHT22;34538;48.836;9.174;2023-11-18T12:53:48;9.40;99.90
48744;DHT22;34538;48.836;9.174;2023-11-18T12:56:20;9.40;99.90
48744;DHT22;34538;48.836;9.174;2023-11-18T12:58:48;9.40;99.90
48744;DHT22;34538;48.836;9.174;2023-11-18T13:01:16;9.40;99.90
48744;DHT22;34538;48.836;9.174;2023-11-18T13:03:44;9.30;99.90
48744;DHT22;34538;48.836;9.174;2023-11-18T13:06:12;9.30;99.90
48744;DHT22;34538;48.836;9.174;2023-11-18T13:08:39;9.30;99.90
48744;DHT22;34538;48.836;9.174;2023-11-18T13:11:07;9.30;99.90
48744;DHT22;34538;48.836;9.174;2023-11-18T13:13:42;9.20;99.90
48744;DHT22;34538;48.836;9.174;2023-11-18T13:16:09;9.20;99.90
48744;DHT22;34538;48.836;9.174;2023-11-18T13:18:43;9.20;99.90
48744;DHT22;34538;48.836;9.174;2023-11-18T13:21:13;9.20;99.90
48744;DHT22;34538;48.836;9.174;2023-11-18T13:23:40;9.10;99.90
48744;DHT22;34538;48.836;9.174;2023-11-18T13:26:07;9.10;99.90
48744;DHT22;34538;48.836;9.174;2023-11-18T13:28:35;9.10;99.90
48744;DHT22;34538;48.836;9.174;2023-11-18T13:31:04;9.10;99.90
48744;DHT22;34538;48.836;9.174;2023-11-18T13:33:35;9.10;99.90
48744;DHT22;34538;48.836;9.174;2023-11-18T13:36:02;9.10;99.90
48744;DHT22;34538;48.836;9.174;2023-11-18T13:38:31;9.10;99.90
48744;DHT22;34538;48.836;9.174;2023-11-18T13:40:58;9.00;99.90
48744;DHT22;34538;48.836;9.174;2023-11-18T13:43:40;9.00;99.90
48744;DHT22;34538;48.836;9.174;2023-11-18T13:46:10;9.00;99.90
48744;DHT22;34538;48.836;9.174;2023-11-18T13:48:39;9.00;99.90
48744;DHT22;34538;48.836;9.174;2023-11-18T13:51:08;8.90;99.90
48744;DHT22;34538;48.836;9.174;2023-11-18T13:53:38;9.00;99.90
48744;DHT22;34538;48.836;9.174;2023-11-18T13:56:06;9.00;99.90
48744;DHT22;34538;48.836;9.174;2023-11-18T13:58:34;8.90;99.90
48744;DHT22;34538;48.836;9.174;2023-11-18T14:01:01;8.90;99.90
48744;DHT22;34538;48.836;9.174;2023-11-18T14:03:29;8.90;99.90
48744;DHT22;34538;48.836;9.174;2023-11-18T14:05:57;9.00;99.90
48744;DHT22;34538;48.836;9.174;2023-11-18T14:08:24;9.00;99.90
48744;DHT22;34538;48.836;9.174;2023-11-18T14:10:51;9.00;99.90
48744;DHT22;34538;48.836;9.174;2023-11-18T14:13:18;9.00;99.90
48744;DHT22;34538;48.836;9.174;2023-11-18T14:15:46;9.00;99.90
48744;DHT22;34538;48.836;9.174;2023-11-18T14:18:13;9.00;99.90
48744;DHT22;34538;48.836;9.174;2023-11-18T14:20:41;9.00;99.90
48744;DHT22;34538;48.836;9.174;2023-11-18T14:23:08;9.00;99.90
48744;DHT22;34538;48.836;9.174;2023-11-18T14:25:37;9.00;99.90
48744;DHT22;34538;48.836;9.174;2023-11-18T14:28:04;8.90;99.90
48744;DHT22;34538;48.836;9.174;2023-11-18T14:30:34;8.90;99.90
48744;DHT22;34538;48.836;9.174;2023-11-18T14:33:01;8.90;99.90
48744;DHT22;34538;48.836;9.174;2023-11-18T14:35:29;8.90;99.90
48744;DHT22;34538;48.836;9.174;2023-11-18T14:37:57;8.90;99.90
48744;DHT22;34538;48.836;9.174;2023-11-18T14:40:24;8.90;99.90
48744;DHT22;34538;48.836;9.174;2023-11-18T14:42:51;8.90;99.90
48744;DHT22;34538;48.836;9.174;2023-11-18T14:45:19;8.80;99.90
48744;DHT22;34538;48.836;9.174;2023-11-18T14:47:47;8.80;99.90
48744;DHT22;34538;48.836;9.174;2023-11-18T14:50:13;8.80;99.90
48744;DHT22;34538;48.836;9.174;2023-11-18T14:52:44;8.80;99.90
48744;DHT22;34538;48.836;9.174;2023-11-18T14:55:13;8.80;99.90
48744;DHT22;34538;48.836;9.174;2023-11-18T14:57:42;8.80;99.90
48744;DHT22;34538;48.836;9.174;2023-11-18T15:00:10;8.80;99.90
48744;DHT22;34538;48.836;9.174;2023-11-18T15:02:45;8.80;99.90
48744;DHT22;34538;48.836;9.174;2023-11-18T15:05:13;8.80;99.90
48744;DHT22;34538;48.836;9.174;2023-11-18T15:07:44;8.80;99.90
48744;DHT22;34538;48.836;9.174;2023-11-18T15:10:15;8.80;99.90
48744;DHT22;34538;48.836;9.174;2023-11-18T15:12:45;8.80;99.90
48744;DHT22;34538;48.836;9.174;2023-11-18T15:15:12;8.70;99.90
48744;DHT22;34538;48.836;9.174;2023-11-18T15:17:46;8.70;99.90
48744;DHT22;34538;48.836;9.174;2023-11-18T15:20:15;8.70;99.90
48744;DHT22;34538;48.836;9.174;2023-11-18T15:22:44;8.70;99.90
48744;DHT22;34538;48.836;9.174;2023-11-18T15:25:11;8.70;99.90
48744;DHT22;34538;48.836;9.174;2023-11-18T15:27:41;8.70;99.90
48744;DHT22;34538;48.836;9.174;2023-11-18T15:30:09;8.70;99.90
48744;DHT22;34538;48.836;9.174;2023-11-18T15:32:37;8.70;99.90
48744;DHT22;34538;48.836;9.174;2023-11-18T15:35:04;8.70;99.90
48744;DHT22;34538;48.836;9.174;2023-11-18T15:37:34;8.60;99.90
48744;DHT22;34538;48.836;9.174;2023-11-18T15:40:01;8.60;99.90
48744;DHT22;34538;48.836;9.174;2023-11-18T15:42:35;8.60;99.90
48744;DHT22;34538;48.836;9.174;2023-11-18T15:45:04;8.60;99.90
48744;DHT22;34538;48.836;9.174;2023-11-18T15:47:34;8.60;99.90
48744;DHT22;34538;48.836;9.174;2023-11-18T15:50:03;8.60;99.90
48744;DHT22;34538;48.836;9.174;2023-11-18T15:52:31;8.60;99.90
48744;DHT22;34538;48.836;9.174;2023-11-18T15:54:59;8.60;99.90
48744;DHT22;34538;48.836;9.174;2023-11-18T15:57:26;8.60;99.90
48744;DHT22;34538;48.836;9.174;2023-11-18T15:59:54;8.60;99.90